sensor_id;sensor_type;location;lat;lon;timestamp;temperature;humidity
18191;DHT22;47004;51.366;12.348;2023-08-01T00:00:07;16.60;99.90
18191;DHT22;47004;51.366;12.348;2023-08-01T00:02:09;16.60;99.90
18191;DHT22;47004;51.366;12.348;2023-08-01T00:04:12;16.60;99.90
18191;DHT22;47004;51.366;12.348;2023-08-01T00:06:13;16.60;99.90
18191;DHT22;47004;51.366;12.348;2023-08-01T00:08:14;16.60;99.90
18191;DHT22;47004;51.366;12.348;2023-08-01T00:10:16;16.60;99.90
18191;DHT22;47004;51.366;12.348;2023-08-01T00:12:18;16.60;99.90
18191;DHT22;47004;51.366;12.348;2023-08-01T00:14:19;16.60;99.90
18191;DHT22;47004;51.366;12.348;2023-08-01T00:16:24;16.60;99.90
18191;DHT22;47004;51.366;12.348;2023-08-01T00:18:26;16.50;99.90
18191;DHT22;47004;51.366;12.348;2023-08-01T00:20:29;16.50;99.90
18191;DHT22;47004;51.366;12.348;2023-08-01T00:22:31;16.50;99.90
18191;DHT22;47004;51.366;12.348;2023-08-01T00:24:35;16.50;99.90
18191;DHT22;47004;51.366;12.348;2023-08-01T00:26:37;16.60;99.90
18191;DHT22;47004;51.366;12.348;2023-08-01T00:28:38;16.50;99.90
18191;DHT22;47004;51.366;12.348;2023-08-01T00:30:40;16.60;99.90
18191;DHT22;47004;51.366;12.348;2023-08-01T00:32:42;16.60;99.90
18191;DHT22;47004;51.366;12.348;2023-08-01T00:34:44;16.60;99.90
18191;DHT22;47004;51.366;12.348;2023-08-01T00:36:47;16.60;99.90
18191;DHT22;47004;51.366;12.348;2023-08-01T00:38:49;16.60;99.90
18191;DHT22;47004;51.366;12.348;2023-08-01T00:40:51;16.50;99.90
18191;DHT22;47004;51.366;12.348;2023-08-01T00:42:52;16.50;99.90
18191;DHT22;47004;51.366;12.348;2023-08-01T00:44:57;16.50;99.90
18191;DHT22;47004;51.366;12.348;2023-08-01T00:46:58;16.50;99.90
18191;DHT22;47004;51.366;12.348;2023-08-01T00:49:00;16.50;99.90
18191;DHT22;47004;51.366;12.348;2023-08-01T00:51:05;16.50;99.90
18191;DHT22;47004;51.366;12.348;2023-08-01T00:53:09;16.50;99.90
18191;DHT22;47004;51.366;12.348;2023-08-01T00:55:11;16.50;99.90
18191;DHT22;47004;51.366;12.348;2023-08-01T00:57:13;16.40;99.90
18191;DHT22;47004;51.366;12.348;2023-08-01T00:59:15;16.40;99.90
18191;DHT22;47004;51.366;12.348;2023-08-01T01:01:17;16.40;99.90
18191;DHT22;47004;51.366;12.348;2023-08-01T01:03:20;16.40;99.90
18191;DHT22;47004;51.366;12.348;2023-08-01T01:05:23;16.40;99.90
18191;DHT22;47004;51.366;12.348;2023-08-01T01:07:26;16.30;99.90
18191;DHT22;47004;51.366;12.348;2023-08-01T01:09:30;16.40;99.90
18191;DHT22;47004;51.366;12.348;2023-08-01T01:11:32;16.40;99.90
18191;DHT22;47004;51.366;12.348;2023-08-01T01:13:34;16.30;99.90
18191;DHT22;47004;51.366;12.348;2023-08-01T01:15:38;16.30;99.90
18191;DHT22;47004;51.366;12.348;2023-08-01T01:17:40;16.30;99.90
18191;DHT22;47004;51.366;12.348;2023-08-01T01:19:42;16.30;99.90
18191;DHT22;47004;51.366;12.348;2023-08-01T01:21:46;16.30;99.90
18191;DHT22;47004;51.366;12.348;2023-08-01T01:23:49;16.40;99.90
18191;DHT22;47004;51.366;12.348;2023-08-01T01:25:53;16.30;99.90
18191;DHT22;47004;51.366;12.348;2023-08-01T01:27:57;16.30;99.90
18191;DHT22;47004;51.366;12.348;2023-08-01T01:30:00;16.30;99.90
18191;DHT22;47004;51.366;12.348;2023-08-01T01:32:06;16.30;99.90
18191;DHT22;47004;51.366;12.348;2023-08-01T01:34:08;16.30;99.90
18191;DHT22;47004;51.366;12.348;2023-08-01T01:36:09;16.40;99.90
18191;DHT22;47004;51.366;12.348;2023-08-01T01:38:14;16.30;99.90
18191;DHT22;47004;51.366;12.348;2023-08-01T01:40:16;16.40;99.90
18191;DHT22;47004;51.366;12.348;2023-08-01T01:42:18;16.40;99.90
18191;DHT22;47004;51.366;12.348;2023-08-01T01:44:20;16.40;99.90
18191;DHT22;47004;51.366;12.348;2023-08-01T01:46:22;16.40;99.90
18191;DHT22;47004;51.366;12.348;2023-08-01T01:48:23;16.40;99.90
18191;DHT22;47004;51.366;12.348;2023-08-01T01:50:25;16.50;99.90
18191;DHT22;47004;51.366;12.348;2023-08-01T01:52:27;16.40;99.90
18191;DHT22;47004;51.366;12.348;2023-08-01T01:54:30;16.50;99.90
18191;DHT22;47004;51.366;12.348;2023-08-01T01:56:32;16.40;99.90
18191;DHT22;47004;51.366;12.348;2023-08-01T01:58:36;16.40;99.90
18191;DHT22;47004;51.366;12.348;2023-08-01T02:00:38;16.40;99.90
18191;DHT22;47004;51.366;12.348;2023-08-01T02:02:40;16.40;99.90
18191;DHT22;47004;51.366;12.348;2023-08-01T02:04:42;16.30;99.90
18191;DHT22;47004;51.366;12.348;2023-08-01T02:06:44;16.30;99.90
18191;DHT22;47004;51.366;12.348;2023-08-01T02:08:45;16.30;99.90
18191;DHT22;47004;51.366;12.348;2023-08-01T02:10:49;16.20;99.90
18191;DHT22;47004;51.366;12.348;2023-08-01T02:12:51;16.20;99.90
18191;DHT22;47004;51.366;12.348;2023-08-01T02:14:53;16.10;99.90
18191;DHT22;47004;51.366;12.348;2023-08-01T02:16:55;16.10;99.90
18191;DHT22;47004;51.366;12.348;2023-08-01T02:18:56;16.10;99.90
18191;DHT22;47004;51.366;12.348;2023-08-01T02:20:58;16.10;99.90
18191;DHT22;47004;51.366;12.348;2023-08-01T02:23:00;16.00;99.90
18191;DHT22;47004;51.366;12.348;2023-08-01T02:25:02;16.00;99.90
18191;DHT22;47004;51.366;12.348;2023-08-01T02:27:05;16.00;99.90
18191;DHT22;47004;51.366;12.348;2023-08-01T02:29:07;16.00;99.90
18191;DHT22;47004;51.366;12.348;2023-08-01T02:31:08;16.00;99.90
18191;DHT22;47004;51.366;12.348;2023-08-01T02:33:10;16.00;99.90
18191;DHT22;47004;51.366;12.348;2023-08-01T02:35:12;15.90;99.90
18191;DHT22;47004;51.366;12.348;2023-08-01T02:37:14;15.90;99.90
18191;DHT22;47004;51.366;12.348;2023-08-01T02:39:16;15.90;99.90
18191;DHT22;47004;51.366;12.348;2023-08-01T02:41:17;15.90;99.90
18191;DHT22;47004;51.366;12.348;2023-08-01T02:43:21;15.90;99.90
18191;DHT22;47004;51.366;12.348;2023-08-01T02:45:23;15.90;99.90
18191;DHT22;47004;51.366;12.348;2023-08-01T02:47:25;15.90;99.90
18191;DHT22;47004;51.366;12.348;2023-08-01T02:49:27;15.90;99.90
18191;DHT22;47004;51.366;12.348;2023-08-01T02:51:29;16.00;99.90
18191;DHT22;47004;51.366;12.348;2023-08-01T02:53:31;15.90;99.90
18191;DHT22;47004;51.366;12.348;2023-08-01T02:55:33;16.00;99.90
18191;DHT22;47004;51.366;12.348;2023-08-01T02:57:35;15.90;99.90
18191;DHT22;47004;51.366;12.348;2023-08-01T02:59:37;15.90;99.90
18191;DHT22;47004;51.366;12.348;2023-08-01T03:01:39;16.00;99.90
18191;DHT22;47004;51.366;12.348;2023-08-01T03:03:41;15.90;99.90
18191;DHT22;47004;51.366;12.348;2023-08-01T03:05:43;15.90;99.90
18191;DHT22;47004;51.366;12.348;2023-08-01T03:07:44;15.90;99.90
18191;DHT22;47004;51.366;12.348;2023-08-01T03:09:46;15.90;99.90
18191;DHT22;47004;51.366;12.348;2023-08-01T03:11:48;15.90;99.90
18191;DHT22;47004;51.366;12.348;2023-08-01T03:13:50;15.90;99.90
18191;DHT22;47004;51.366;12.348;2023-08-01T03:15:53;15.90;99.90
18191;DHT22;47004;51.366;12.348;2023-08-01T03:17:55;15.90;99.90
18191;DHT22;47004;51.366;12.348;2023-08-01T03:19:57;15.90;99.90
18191;DHT22;47004;51.366;12.348;2023-08-01T03:22:00;15.90;99.90
18191;DHT22;47004;51.366;12.348;2023-08-01T03:24:02;15.90;99.90
18191;DHT22;47004;51.366;12.348;2023-08-01T03:26:04;15.90;99.90
18191;DHT22;47004;51.366;12.348;2023-08-01T03:28:06;15.90;99.90
18191;DHT22;47004;51.366;12.348;2023-08-01T03:30:08;15.90;99.90
18191;DHT22;47004;51.366;12.348;2023-08-01T03:32:11;15.90;99.90
18191;DHT22;47004;51.366;12.348;2023-08-01T03:34:13;15.90;99.90
18191;DHT22;47004;51.366;12.348;2023-08-01T03:36:15;15.90;99.90
18191;DHT22;47004;51.366;12.348;2023-08-01T03:38:17;15.90;99.90
18191;DHT22;47004;51.366;12.348;2023-08-01T03:40:19;15.90;99.90
18191;DHT22;47004;51.366;12.348;2023-08-01T03:42:21;15.90;99.90
18191;DHT22;47004;51.366;12.348;2023-08-01T03:44:23;15.90;99.90
18191;DHT22;47004;51.366;12.348;2023-08-01T03:46:25;15.90;99.90
18191;DHT22;47004;51.366;12.348;2023-08-01T03:48:28;15.90;99.90
18191;DHT22;47004;51.366;12.348;2023-08-01T03:50:33;15.90;99.90
18191;DHT22;47004;51.366;12.348;2023-08-01T03:52:36;15.90;99.90
18191;DHT22;47004;51.366;12.348;2023-08-01T03:54:38;15.90;99.90
18191;DHT22;47004;51.366;12.348;2023-08-01T03:56:40;15.90;99.90
18191;DHT22;47004;51.366;12.348;2023-08-01T03:58:43;15.90;99.90
18191;DHT22;47004;51.366;12.348;2023-08-01T04:00:45;15.90;99.90
18191;DHT22;47004;51.366;12.348;2023-08-01T04:02:47;15.90;99.90
18191;DHT22;47004;51.366;12.348;2023-08-01T04:04:50;15.90;99.90
18191;DHT22;47004;51.366;12.348;2023-08-01T04:06:53;15.90;99.90
18191;DHT22;47004;51.366;12.348;2023-08-01T04:08:55;15.90;99.90
18191;DHT22;47004;51.366;12.348;2023-08-01T04:10:57;15.90;99.90
18191;DHT22;47004;51.366;12.348;2023-08-01T04:12:58;15.90;99.90
18191;DHT22;47004;51.366;12.348;2023-08-01T04:15:00;15.90;99.90
18191;DHT22;47004;51.366;12.348;2023-08-01T04:17:02;15.90;99.90
18191;DHT22;47004;51.366;12.348;2023-08-01T04:19:04;15.90;99.90
18191;DHT22;47004;51.366;12.348;2023-08-01T04:21:08;15.90;99.90
18191;DHT22;47004;51.366;12.348;2023-08-01T04:23:10;15.90;99.90
18191;DHT22;47004;51.366;12.348;2023-08-01T04:25:12;15.90;99.90
18191;DHT22;47004;51.366;12.348;2023-08-01T04:27:13;16.00;99.90
18191;DHT22;47004;51.366;12.348;2023-08-01T04:29:15;16.00;99.90
18191;DHT22;47004;51.366;12.348;2023-08-01T04:31:18;16.00;99.90
18191;DHT22;47004;51.366;12.348;2023-08-01T04:33:20;16.00;99.90
18191;DHT22;47004;51.366;12.348;2023-08-01T04:35:22;15.90;99.90
18191;DHT22;47004;51.366;12.348;2023-08-01T04:37:24;16.00;99.90
18191;DHT22;47004;51.366;12.348;2023-08-01T04:39:26;16.00;99.90
18191;DHT22;47004;51.366;12.348;2023-08-01T04:41:28;16.00;99.90
18191;DHT22;47004;51.366;12.348;2023-08-01T04:43:30;16.00;99.90
18191;DHT22;47004;51.366;12.348;2023-08-01T04:45:32;16.00;99.90
18191;DHT22;47004;51.366;12.348;2023-08-01T04:47:34;16.00;99.90
18191;DHT22;47004;51.366;12.348;2023-08-01T04:49:36;16.00;99.90
18191;DHT22;47004;51.366;12.348;2023-08-01T04:51:38;16.00;99.90
18191;DHT22;47004;51.366;12.348;2023-08-01T04:53:41;16.00;99.90
18191;DHT22;47004;51.366;12.348;2023-08-01T04:55:43;16.10;99.90
18191;DHT22;47004;51.366;12.348;2023-08-01T04:57:45;16.00;99.90
18191;DHT22;47004;51.366;12.348;2023-08-01T04:59:47;16.00;99.90
18191;DHT22;47004;51.366;12.348;2023-08-01T05:01:48;16.10;99.90
18191;DHT22;47004;51.366;12.348;2023-08-01T05:03:50;16.00;99.90
18191;DHT22;47004;51.366;12.348;2023-08-01T05:05:52;16.00;99.90
18191;DHT22;47004;51.366;12.348;2023-08-01T05:07:54;16.10;99.90
18191;DHT22;47004;51.366;12.348;2023-08-01T05:09:57;16.10;99.90
18191;DHT22;47004;51.366;12.348;2023-08-01T05:11:59;16.10;99.90
18191;DHT22;47004;51.366;12.348;2023-08-01T05:14:01;16.10;99.90
18191;DHT22;47004;51.366;12.348;2023-08-01T05:16:03;16.10;99.90
18191;DHT22;47004;51.366;12.348;2023-08-01T05:18:04;16.10;99.90
18191;DHT22;47004;51.366;12.348;2023-08-01T05:20:07;16.10;99.90
18191;DHT22;47004;51.366;12.348;2023-08-01T05:22:09;16.10;99.90
18191;DHT22;47004;51.366;12.348;2023-08-01T05:24:11;16.10;99.90
18191;DHT22;47004;51.366;12.348;2023-08-01T05:26:14;16.10;99.90
18191;DHT22;47004;51.366;12.348;2023-08-01T05:28:16;16.10;99.90
18191;DHT22;47004;51.366;12.348;2023-08-01T05:30:17;16.10;99.90
18191;DHT22;47004;51.366;12.348;2023-08-01T05:32:19;16.10;99.90
18191;DHT22;47004;51.366;12.348;2023-08-01T05:34:21;16.10;99.90
18191;DHT22;47004;51.366;12.348;2023-08-01T05:36:21;16.10;99.90
18191;DHT22;47004;51.366;12.348;2023-08-01T05:38:23;16.10;99.90
18191;DHT22;47004;51.366;12.348;2023-08-01T05:40:25;16.10;99.90
18191;DHT22;47004;51.366;12.348;2023-08-01T05:42:28;16.10;99.90
18191;DHT22;47004;51.366;12.348;2023-08-01T05:44:30;16.10;99.90
18191;DHT22;47004;51.366;12.348;2023-08-01T05:46:31;16.10;99.90
18191;DHT22;47004;51.366;12.348;2023-08-01T05:48:33;16.00;99.90
18191;DHT22;47004;51.366;12.348;2023-08-01T05:50:35;16.10;99.90
18191;DHT22;47004;51.366;12.348;2023-08-01T05:52:36;16.10;99.90
18191;DHT22;47004;51.366;12.348;2023-08-01T05:54:38;16.10;99.90
18191;DHT22;47004;51.366;12.348;2023-08-01T05:56:40;16.10;99.90
18191;DHT22;47004;51.366;12.348;2023-08-01T05:58:43;16.10;99.90
18191;DHT22;47004;51.366;12.348;2023-08-01T06:00:45;16.10;99.90
18191;DHT22;47004;51.366;12.348;2023-08-01T06:02:47;16.10;99.90
18191;DHT22;47004;51.366;12.348;2023-08-01T06:04:49;16.10;99.90
18191;DHT22;47004;51.366;12.348;2023-08-01T06:06:51;16.10;99.90
18191;DHT22;47004;51.366;12.348;2023-08-01T06:08:53;16.10;99.90
18191;DHT22;47004;51.366;12.348;2023-08-01T06:10:55;16.10;99.90
18191;DHT22;47004;51.366;12.348;2023-08-01T06:12:57;16.10;99.90
18191;DHT22;47004;51.366;12.348;2023-08-01T06:15:00;16.20;99.90
18191;DHT22;47004;51.366;12.348;2023-08-01T06:17:02;16.20;99.90
18191;DHT22;47004;51.366;12.348;2023-08-01T06:19:04;16.20;99.90
18191;DHT22;47004;51.366;12.348;2023-08-01T06:21:06;16.20;99.90
18191;DHT22;47004;51.366;12.348;2023-08-01T06:23:08;16.20;99.90
18191;DHT22;47004;51.366;12.348;2023-08-01T06:25:10;16.20;99.90
18191;DHT22;47004;51.366;12.348;2023-08-01T06:27:12;16.20;99.90
18191;DHT22;47004;51.366;12.348;2023-08-01T06:29:15;16.20;99.90
18191;DHT22;47004;51.366;12.348;2023-08-01T06:31:18;16.30;99.90
18191;DHT22;47004;51.366;12.348;2023-08-01T06:33:21;16.30;99.90
18191;DHT22;47004;51.366;12.348;2023-08-01T06:35:23;16.30;99.90
18191;DHT22;47004;51.366;12.348;2023-08-01T06:37:28;16.40;99.90
18191;DHT22;47004;51.366;12.348;2023-08-01T06:39:30;16.40;99.90
18191;DHT22;47004;51.366;12.348;2023-08-01T06:41:32;16.30;99.90
18191;DHT22;47004;51.366;12.348;2023-08-01T06:43:33;16.30;99.90
18191;DHT22;47004;51.366;12.348;2023-08-01T06:45:37;16.40;99.90
18191;DHT22;47004;51.366;12.348;2023-08-01T06:47:41;16.30;99.90
18191;DHT22;47004;51.366;12.348;2023-08-01T06:49:43;16.40;99.90
18191;DHT22;47004;51.366;12.348;2023-08-01T06:51:45;16.40;99.90
18191;DHT22;47004;51.366;12.348;2023-08-01T06:53:47;16.40;99.90
18191;DHT22;47004;51.366;12.348;2023-08-01T06:55:49;16.30;99.90
18191;DHT22;47004;51.366;12.348;2023-08-01T06:57:51;16.40;99.90
18191;DHT22;47004;51.366;12.348;2023-08-01T06:59:54;16.40;99.90
18191;DHT22;47004;51.366;12.348;2023-08-01T07:01:56;16.40;99.90
18191;DHT22;47004;51.366;12.348;2023-08-01T07:04:00;16.40;99.90
18191;DHT22;47004;51.366;12.348;2023-08-01T07:06:00;16.40;99.90
18191;DHT22;47004;51.366;12.348;2023-08-01T07:08:03;16.40;99.90
18191;DHT22;47004;51.366;12.348;2023-08-01T07:10:06;16.50;99.90
18191;DHT22;47004;51.366;12.348;2023-08-01T07:12:08;16.40;99.90
18191;DHT22;47004;51.366;12.348;2023-08-01T07:14:10;16.40;99.90
18191;DHT22;47004;51.366;12.348;2023-08-01T07:16:12;16.50;99.90
18191;DHT22;47004;51.366;12.348;2023-08-01T07:18:14;16.50;99.90
18191;DHT22;47004;51.366;12.348;2023-08-01T07:20:17;16.40;99.90
18191;DHT22;47004;51.366;12.348;2023-08-01T07:22:19;16.50;99.90
18191;DHT22;47004;51.366;12.348;2023-08-01T07:24:21;16.40;99.90
18191;DHT22;47004;51.366;12.348;2023-08-01T07:26:23;16.50;99.90
18191;DHT22;47004;51.366;12.348;2023-08-01T07:28:24;16.50;99.90
18191;DHT22;47004;51.366;12.348;2023-08-01T07:30:26;16.40;99.90
18191;DHT22;47004;51.366;12.348;2023-08-01T07:32:28;16.40;99.90
18191;DHT22;47004;51.366;12.348;2023-08-01T07:34:29;16.40;99.90
18191;DHT22;47004;51.366;12.348;2023-08-01T07:36:33;16.40;99.90
18191;DHT22;47004;51.366;12.348;2023-08-01T07:38:34;16.40;99.90
18191;DHT22;47004;51.366;12.348;2023-08-01T07:40:37;16.40;99.90
18191;DHT22;47004;51.366;12.348;2023-08-01T07:42:38;16.40;99.90
18191;DHT22;47004;51.366;12.348;2023-08-01T07:44:40;16.30;99.90
18191;DHT22;47004;51.366;12.348;2023-08-01T07:46:42;16.30;99.90
18191;DHT22;47004;51.366;12.348;2023-08-01T07:48:47;16.30;99.90
18191;DHT22;47004;51.366;12.348;2023-08-01T07:50:49;16.30;99.90
18191;DHT22;47004;51.366;12.348;2023-08-01T07:52:53;16.30;99.90
18191;DHT22;47004;51.366;12.348;2023-08-01T07:54:55;16.30;99.90
18191;DHT22;47004;51.366;12.348;2023-08-01T07:56:58;16.30;99.90
18191;DHT22;47004;51.366;12.348;2023-08-01T07:59:10;16.30;99.90
18191;DHT22;47004;51.366;12.348;2023-08-01T08:01:18;16.30;99.90
18191;DHT22;47004;51.366;12.348;2023-08-01T08:03:19;16.30;99.90
18191;DHT22;47004;51.366;12.348;2023-08-01T08:05:22;16.40;99.90
18191;DHT22;47004;51.366;12.348;2023-08-01T08:07:24;16.40;99.90
18191;DHT22;47004;51.366;12.348;2023-08-01T08:09:27;16.40;99.90
18191;DHT22;47004;51.366;12.348;2023-08-01T08:11:29;16.30;99.90
18191;DHT22;47004;51.366;12.348;2023-08-01T08:13:31;16.40;99.90
18191;DHT22;47004;51.366;12.348;2023-08-01T08:15:33;16.40;99.90
18191;DHT22;47004;51.366;12.348;2023-08-01T08:17:36;16.30;99.90
18191;DHT22;47004;51.366;12.348;2023-08-01T08:19:38;16.30;99.90
18191;DHT22;47004;51.366;12.348;2023-08-01T08:21:40;16.40;99.90
18191;DHT22;47004;51.366;12.348;2023-08-01T08:23:42;16.40;99.90
18191;DHT22;47004;51.366;12.348;2023-08-01T08:25:45;16.40;99.90
18191;DHT22;47004;51.366;12.348;2023-08-01T08:27:48;16.40;99.90
18191;DHT22;47004;51.366;12.348;2023-08-01T08:29:50;16.50;99.90
18191;DHT22;47004;51.366;12.348;2023-08-01T08:31:52;16.60;99.90
18191;DHT22;47004;51.366;12.348;2023-08-01T08:33:54;16.60;99.90
18191;DHT22;47004;51.366;12.348;2023-08-01T08:35:56;16.60;99.90
18191;DHT22;47004;51.366;12.348;2023-08-01T08:37:59;16.80;99.90
18191;DHT22;47004;51.366;12.348;2023-08-01T08:40:01;16.70;99.90
18191;DHT22;47004;51.366;12.348;2023-08-01T08:42:06;16.70;99.90
18191;DHT22;47004;51.366;12.348;2023-08-01T08:44:08;16.70;99.90
18191;DHT22;47004;51.366;12.348;2023-08-01T08:46:14;16.70;99.90
18191;DHT22;47004;51.366;12.348;2023-08-01T08:48:18;16.70;99.90
18191;DHT22;47004;51.366;12.348;2023-08-01T08:50:20;16.60;99.90
18191;DHT22;47004;51.366;12.348;2023-08-01T08:52:23;16.60;99.90
18191;DHT22;47004;51.366;12.348;2023-08-01T08:54:26;16.60;99.90
18191;DHT22;47004;51.366;12.348;2023-08-01T08:56:28;16.60;99.90
18191;DHT22;47004;51.366;12.348;2023-08-01T08:58:32;16.50;99.90
18191;DHT22;47004;51.366;12.348;2023-08-01T09:00:35;16.50;99.90
18191;DHT22;47004;51.366;12.348;2023-08-01T09:02:38;16.60;99.90
18191;DHT22;47004;51.366;12.348;2023-08-01T09:04:39;16.50;99.90
18191;DHT22;47004;51.366;12.348;2023-08-01T09:06:44;16.50;99.90
18191;DHT22;47004;51.366;12.348;2023-08-01T09:08:50;16.50;99.90
18191;DHT22;47004;51.366;12.348;2023-08-01T09:10:52;16.50;99.90
18191;DHT22;47004;51.366;12.348;2023-08-01T09:12:54;16.60;99.90
18191;DHT22;47004;51.366;12.348;2023-08-01T09:14:58;16.60;99.90
18191;DHT22;47004;51.366;12.348;2023-08-01T09:17:06;16.70;99.90
18191;DHT22;47004;51.366;12.348;2023-08-01T09:19:09;16.70;99.90
18191;DHT22;47004;51.366;12.348;2023-08-01T09:21:13;16.80;99.90
18191;DHT22;47004;51.366;12.348;2023-08-01T09:23:16;16.80;99.90
18191;DHT22;47004;51.366;12.348;2023-08-01T09:25:18;16.90;99.90
18191;DHT22;47004;51.366;12.348;2023-08-01T09:27:21;16.90;99.90
18191;DHT22;47004;51.366;12.348;2023-08-01T09:29:24;17.00;99.90
18191;DHT22;47004;51.366;12.348;2023-08-01T09:31:30;17.10;99.90
18191;DHT22;47004;51.366;12.348;2023-08-01T09:33:38;17.10;99.90
18191;DHT22;47004;51.366;12.348;2023-08-01T09:35:40;17.20;99.90
18191;DHT22;47004;51.366;12.348;2023-08-01T09:37:42;17.20;99.90
18191;DHT22;47004;51.366;12.348;2023-08-01T09:39:44;17.30;99.90
18191;DHT22;47004;51.366;12.348;2023-08-01T09:41:57;17.40;99.90
18191;DHT22;47004;51.366;12.348;2023-08-01T09:43:59;17.40;99.90
18191;DHT22;47004;51.366;12.348;2023-08-01T09:46:01;17.40;99.90
18191;DHT22;47004;51.366;12.348;2023-08-01T09:48:04;17.50;99.90
18191;DHT22;47004;51.366;12.348;2023-08-01T09:50:09;17.40;99.90
18191;DHT22;47004;51.366;12.348;2023-08-01T09:52:10;17.40;99.90
18191;DHT22;47004;51.366;12.348;2023-08-01T09:54:12;17.40;99.90
18191;DHT22;47004;51.366;12.348;2023-08-01T09:56:15;17.40;99.90
18191;DHT22;47004;51.366;12.348;2023-08-01T09:58:25;17.30;99.90
18191;DHT22;47004;51.366;12.348;2023-08-01T10:00:29;17.30;99.90
18191;DHT22;47004;51.366;12.348;2023-08-01T10:02:32;17.20;99.90
18191;DHT22;47004;51.366;12.348;2023-08-01T10:04:36;17.10;99.90
18191;DHT22;47004;51.366;12.348;2023-08-01T10:06:43;17.10;99.90
18191;DHT22;47004;51.366;12.348;2023-08-01T10:08:48;17.00;99.90
18191;DHT22;47004;51.366;12.348;2023-08-01T10:10:51;16.90;99.90
18191;DHT22;47004;51.366;12.348;2023-08-01T10:13:00;16.80;99.90
18191;DHT22;47004;51.366;12.348;2023-08-01T10:15:04;16.80;99.90
18191;DHT22;47004;51.366;12.348;2023-08-01T10:17:06;16.80;99.90
18191;DHT22;47004;51.366;12.348;2023-08-01T10:19:09;16.80;99.90
18191;DHT22;47004;51.366;12.348;2023-08-01T10:21:15;16.80;99.90
18191;DHT22;47004;51.366;12.348;2023-08-01T10:23:17;16.80;99.90
18191;DHT22;47004;51.366;12.348;2023-08-01T10:25:20;16.90;99.90
18191;DHT22;47004;51.366;12.348;2023-08-01T10:27:23;16.90;99.90
18191;DHT22;47004;51.366;12.348;2023-08-01T10:29:34;16.90;99.90
18191;DHT22;47004;51.366;12.348;2023-08-01T10:31:37;17.00;99.90
18191;DHT22;47004;51.366;12.348;2023-08-01T10:33:40;17.00;99.90
18191;DHT22;47004;51.366;12.348;2023-08-01T10:35:42;17.10;99.90
18191;DHT22;47004;51.366;12.348;2023-08-01T10:37:45;17.10;99.90
18191;DHT22;47004;51.366;12.348;2023-08-01T10:39:57;17.20;99.90
18191;DHT22;47004;51.366;12.348;2023-08-01T10:42:04;17.30;99.90
18191;DHT22;47004;51.366;12.348;2023-08-01T10:44:09;17.40;99.90
18191;DHT22;47004;51.366;12.348;2023-08-01T10:46:12;17.50;99.90
18191;DHT22;47004;51.366;12.348;2023-08-01T10:48:14;17.60;99.90
18191;DHT22;47004;51.366;12.348;2023-08-01T10:50:17;17.70;99.90
18191;DHT22;47004;51.366;12.348;2023-08-01T10:52:20;17.70;99.90
18191;DHT22;47004;51.366;12.348;2023-08-01T10:54:25;17.70;99.90
18191;DHT22;47004;51.366;12.348;2023-08-01T10:56:28;17.80;99.90
18191;DHT22;47004;51.366;12.348;2023-08-01T10:58:31;17.90;99.90
18191;DHT22;47004;51.366;12.348;2023-08-01T11:00:33;17.90;99.90
18191;DHT22;47004;51.366;12.348;2023-08-01T11:02:36;17.90;99.90
18191;DHT22;47004;51.366;12.348;2023-08-01T11:04:38;17.90;99.90
18191;DHT22;47004;51.366;12.348;2023-08-01T11:06:44;17.80;99.90
18191;DHT22;47004;51.366;12.348;2023-08-01T11:08:46;17.80;99.90
18191;DHT22;47004;51.366;12.348;2023-08-01T11:10:50;17.80;99.90
18191;DHT22;47004;51.366;12.348;2023-08-01T11:12:52;17.80;99.90
18191;DHT22;47004;51.366;12.348;2023-08-01T11:14:59;17.80;99.90
18191;DHT22;47004;51.366;12.348;2023-08-01T11:17:01;17.80;99.90
18191;DHT22;47004;51.366;12.348;2023-08-01T11:19:03;17.90;99.90
18191;DHT22;47004;51.366;12.348;2023-08-01T11:21:04;18.00;99.90
18191;DHT22;47004;51.366;12.348;2023-08-01T11:23:06;18.20;99.90
18191;DHT22;47004;51.366;12.348;2023-08-01T11:25:08;18.30;99.90
18191;DHT22;47004;51.366;12.348;2023-08-01T11:27:12;18.30;99.90
18191;DHT22;47004;51.366;12.348;2023-08-01T11:29:14;18.40;99.90
18191;DHT22;47004;51.366;12.348;2023-08-01T11:31:17;18.40;99.90
18191;DHT22;47004;51.366;12.348;2023-08-01T11:33:21;18.50;99.90
18191;DHT22;47004;51.366;12.348;2023-08-01T11:35:23;18.60;99.90
18191;DHT22;47004;51.366;12.348;2023-08-01T11:37:26;18.60;99.90
18191;DHT22;47004;51.366;12.348;2023-08-01T11:39:28;18.60;99.90
18191;DHT22;47004;51.366;12.348;2023-08-01T11:41:30;18.70;99.90
18191;DHT22;47004;51.366;12.348;2023-08-01T11:43:40;18.80;99.90
18191;DHT22;47004;51.366;12.348;2023-08-01T11:45:49;19.00;99.90
18191;DHT22;47004;51.366;12.348;2023-08-01T11:47:52;19.10;99.90
18191;DHT22;47004;51.366;12.348;2023-08-01T11:49:54;19.20;99.90
18191;DHT22;47004;51.366;12.348;2023-08-01T11:52:05;19.30;99.90
18191;DHT22;47004;51.366;12.348;2023-08-01T11:54:07;19.30;99.90
18191;DHT22;47004;51.366;12.348;2023-08-01T11:56:20;19.30;99.90
18191;DHT22;47004;51.366;12.348;2023-08-01T11:58:34;19.30;99.90
18191;DHT22;47004;51.366;12.348;2023-08-01T12:00:37;19.40;99.90
18191;DHT22;47004;51.366;12.348;2023-08-01T12:02:39;19.50;99.90
18191;DHT22;47004;51.366;12.348;2023-08-01T12:04:46;19.60;99.90
18191;DHT22;47004;51.366;12.348;2023-08-01T12:06:48;19.70;99.90
18191;DHT22;47004;51.366;12.348;2023-08-01T12:08:51;19.90;99.90
18191;DHT22;47004;51.366;12.348;2023-08-01T12:10:53;20.20;99.90
18191;DHT22;47004;51.366;12.348;2023-08-01T12:12:56;20.20;99.90
18191;DHT22;47004;51.366;12.348;2023-08-01T12:14:56;20.40;99.90
18191;DHT22;47004;51.366;12.348;2023-08-01T12:17:00;20.50;99.90
18191;DHT22;47004;51.366;12.348;2023-08-01T12:19:02;20.70;99.90
18191;DHT22;47004;51.366;12.348;2023-08-01T12:21:03;20.80;99.90
18191;DHT22;47004;51.366;12.348;2023-08-01T12:23:06;20.80;99.90
18191;DHT22;47004;51.366;12.348;2023-08-01T12:25:08;21.20;99.90
18191;DHT22;47004;51.366;12.348;2023-08-01T12:27:11;21.50;99.90
18191;DHT22;47004;51.366;12.348;2023-08-01T12:29:13;21.60;99.90
18191;DHT22;47004;51.366;12.348;2023-08-01T12:31:16;21.70;99.90
18191;DHT22;47004;51.366;12.348;2023-08-01T12:33:20;21.80;99.90
18191;DHT22;47004;51.366;12.348;2023-08-01T12:35:24;22.20;99.90
18191;DHT22;47004;51.366;12.348;2023-08-01T12:37:29;22.60;99.90
18191;DHT22;47004;51.366;12.348;2023-08-01T12:39:31;23.10;99.90
18191;DHT22;47004;51.366;12.348;2023-08-01T12:41:33;23.60;99.90